sensor_id;sensor_type;location;lat;lon;timestamp;temperature;humidity
17728;DHT22;8984;49.268;12.302;2023-09-18T00:01:13;18.70;99.90
17728;DHT22;8984;49.268;12.302;2023-09-18T00:03:41;18.70;99.90
17728;DHT22;8984;49.268;12.302;2023-09-18T00:06:32;18.70;99.90
17728;DHT22;8984;49.268;12.302;2023-09-18T00:09:04;18.70;99.90
17728;DHT22;8984;49.268;12.302;2023-09-18T00:11:38;18.70;99.90
17728;DHT22;8984;49.268;12.302;2023-09-18T00:14:08;18.60;99.90
17728;DHT22;8984;49.268;12.302;2023-09-18T00:16:42;18.60;99.90
17728;DHT22;8984;49.268;12.302;2023-09-18T00:19:12;18.50;99.90
17728;DHT22;8984;49.268;12.302;2023-09-18T00:21:43;18.60;99.90
17728;DHT22;8984;49.268;12.302;2023-09-18T00:24:14;18.50;99.90
17728;DHT22;8984;49.268;12.302;2023-09-18T00:26:48;18.50;99.90
17728;DHT22;8984;49.268;12.302;2023-09-18T00:29:20;18.40;99.90
17728;DHT22;8984;49.268;12.302;2023-09-18T00:31:53;18.30;99.90
17728;DHT22;8984;49.268;12.302;2023-09-18T00:34:26;18.30;99.90
17728;DHT22;8984;49.268;12.302;2023-09-18T00:37:10;18.20;99.90
17728;DHT22;8984;49.268;12.302;2023-09-18T00:40:03;18.20;99.90
17728;DHT22;8984;49.268;12.302;2023-09-18T00:42:31;18.10;99.90
17728;DHT22;8984;49.268;12.302;2023-09-18T00:45:00;18.00;99.90
17728;DHT22;8984;49.268;12.302;2023-09-18T00:47:33;18.00;99.90
17728;DHT22;8984;49.268;12.302;2023-09-18T00:50:08;18.00;99.90
17728;DHT22;8984;49.268;12.302;2023-09-18T00:52:40;18.10;99.90
17728;DHT22;8984;49.268;12.302;2023-09-18T00:55:09;18.10;99.90
17728;DHT22;8984;49.268;12.302;2023-09-18T00:57:48;18.10;99.90
17728;DHT22;8984;49.268;12.302;2023-09-18T01:00:16;18.10;99.90
17728;DHT22;8984;49.268;12.302;2023-09-18T01:02:53;18.10;99.90
17728;DHT22;8984;49.268;12.302;2023-09-18T01:05:27;18.20;99.90
17728;DHT22;8984;49.268;12.302;2023-09-18T01:08:18;18.20;99.90
17728;DHT22;8984;49.268;12.302;2023-09-18T01:10:53;18.20;99.90
17728;DHT22;8984;49.268;12.302;2023-09-18T01:13:30;18.20;99.90
17728;DHT22;8984;49.268;12.302;2023-09-18T01:16:20;18.10;99.90
17728;DHT22;8984;49.268;12.302;2023-09-18T01:19:08;18.10;99.90
17728;DHT22;8984;49.268;12.302;2023-09-18T01:21:35;18.10;99.90
17728;DHT22;8984;49.268;12.302;2023-09-18T01:24:16;18.10;99.90
17728;DHT22;8984;49.268;12.302;2023-09-18T01:26:45;17.90;99.90
17728;DHT22;8984;49.268;12.302;2023-09-18T01:29:18;17.80;99.90
17728;DHT22;8984;49.268;12.302;2023-09-18T01:31:46;17.80;99.90
17728;DHT22;8984;49.268;12.302;2023-09-18T01:34:22;17.80;99.90
17728;DHT22;8984;49.268;12.302;2023-09-18T01:36:57;17.80;99.90
17728;DHT22;8984;49.268;12.302;2023-09-18T01:39:28;17.80;99.90
17728;DHT22;8984;49.268;12.302;2023-09-18T01:41:57;17.70;99.90
17728;DHT22;8984;49.268;12.302;2023-09-18T01:44:27;17.70;99.90
17728;DHT22;8984;49.268;12.302;2023-09-18T01:46:56;17.70;99.90
17728;DHT22;8984;49.268;12.302;2023-09-18T01:49:29;17.70;99.90
17728;DHT22;8984;49.268;12.302;2023-09-18T01:52:05;17.70;99.90
17728;DHT22;8984;49.268;12.302;2023-09-18T01:54:52;17.70;99.90
17728;DHT22;8984;49.268;12.302;2023-09-18T01:57:27;17.70;99.90
17728;DHT22;8984;49.268;12.302;2023-09-18T02:00:15;17.60;99.90
17728;DHT22;8984;49.268;12.302;2023-09-18T02:02:49;17.70;99.90
17728;DHT22;8984;49.268;12.302;2023-09-18T02:05:17;17.80;99.90
17728;DHT22;8984;49.268;12.302;2023-09-18T02:07:46;17.80;99.90
17728;DHT22;8984;49.268;12.302;2023-09-18T02:10:21;17.80;99.90
17728;DHT22;8984;49.268;12.302;2023-09-18T02:12:53;17.80;99.90
17728;DHT22;8984;49.268;12.302;2023-09-18T02:15:24;17.80;99.90
17728;DHT22;8984;49.268;12.302;2023-09-18T02:17:53;17.70;99.90
17728;DHT22;8984;49.268;12.302;2023-09-18T02:20:21;17.50;99.90
17728;DHT22;8984;49.268;12.302;2023-09-18T02:22:56;17.40;99.90
17728;DHT22;8984;49.268;12.302;2023-09-18T02:25:33;17.50;99.90
17728;DHT22;8984;49.268;12.302;2023-09-18T02:28:06;17.50;99.90
17728;DHT22;8984;49.268;12.302;2023-09-18T02:30:37;17.30;99.90
17728;DHT22;8984;49.268;12.302;2023-09-18T02:33:06;17.40;99.90
17728;DHT22;8984;49.268;12.302;2023-09-18T02:35:35;17.30;99.90
17728;DHT22;8984;49.268;12.302;2023-09-18T02:38:04;17.30;99.90
17728;DHT22;8984;49.268;12.302;2023-09-18T02:40:37;17.40;99.90
17728;DHT22;8984;49.268;12.302;2023-09-18T02:43:08;17.40;99.90
17728;DHT22;8984;49.268;12.302;2023-09-18T02:45:35;17.40;99.90
17728;DHT22;8984;49.268;12.302;2023-09-18T02:48:05;17.50;99.90
17728;DHT22;8984;49.268;12.302;2023-09-18T02:50:44;17.60;99.90
17728;DHT22;8984;49.268;12.302;2023-09-18T02:53:17;17.70;99.90
17728;DHT22;8984;49.268;12.302;2023-09-18T02:56:04;17.70;99.90
17728;DHT22;8984;49.268;12.302;2023-09-18T02:58:31;17.80;99.90
17728;DHT22;8984;49.268;12.302;2023-09-18T03:01:02;17.70;99.90
17728;DHT22;8984;49.268;12.302;2023-09-18T03:03:46;17.70;99.90
17728;DHT22;8984;49.268;12.302;2023-09-18T03:06:22;17.70;99.90
17728;DHT22;8984;49.268;12.302;2023-09-18T03:09:02;17.70;99.90
17728;DHT22;8984;49.268;12.302;2023-09-18T03:11:50;17.70;99.90
17728;DHT22;8984;49.268;12.302;2023-09-18T03:14:45;17.70;99.90
17728;DHT22;8984;49.268;12.302;2023-09-18T03:17:33;17.80;99.90
17728;DHT22;8984;49.268;12.302;2023-09-18T03:23:48;17.80;99.90
17728;DHT22;8984;49.268;12.302;2023-09-18T03:26:21;17.70;99.90
17728;DHT22;8984;49.268;12.302;2023-09-18T03:32:32;17.60;99.90
17728;DHT22;8984;49.268;12.302;2023-09-18T03:35:30;17.50;99.90
17728;DHT22;8984;49.268;12.302;2023-09-18T03:38:37;17.40;99.90
17728;DHT22;8984;49.268;12.302;2023-09-18T03:41:06;17.30;99.90
17728;DHT22;8984;49.268;12.302;2023-09-18T03:43:38;17.30;99.90
17728;DHT22;8984;49.268;12.302;2023-09-18T03:46:09;17.30;99.90
17728;DHT22;8984;49.268;12.302;2023-09-18T03:51:44;17.20;99.90
17728;DHT22;8984;49.268;12.302;2023-09-18T03:54:19;17.20;99.90
17728;DHT22;8984;49.268;12.302;2023-09-18T03:56:49;17.20;99.90
17728;DHT22;8984;49.268;12.302;2023-09-18T03:59:22;17.10;99.90
17728;DHT22;8984;49.268;12.302;2023-09-18T04:01:53;17.00;99.90
17728;DHT22;8984;49.268;12.302;2023-09-18T04:04:25;17.00;99.90
17728;DHT22;8984;49.268;12.302;2023-09-18T04:06:54;16.90;99.90
17728;DHT22;8984;49.268;12.302;2023-09-18T04:09:54;16.80;99.90
17728;DHT22;8984;49.268;12.302;2023-09-18T04:12:34;16.80;99.90
17728;DHT22;8984;49.268;12.302;2023-09-18T04:15:13;16.90;99.90
17728;DHT22;8984;49.268;12.302;2023-09-18T04:17:43;17.10;99.90
17728;DHT22;8984;49.268;12.302;2023-09-18T04:20:32;17.00;99.90
17728;DHT22;8984;49.268;12.302;2023-09-18T04:23:22;17.10;99.90
17728;DHT22;8984;49.268;12.302;2023-09-18T04:25:54;17.10;99.90
17728;DHT22;8984;49.268;12.302;2023-09-18T04:28:33;16.90;99.90
17728;DHT22;8984;49.268;12.302;2023-09-18T04:31:12;16.90;99.90
17728;DHT22;8984;49.268;12.302;2023-09-18T04:33:45;16.90;99.90
17728;DHT22;8984;49.268;12.302;2023-09-18T04:36:20;16.80;99.90
17728;DHT22;8984;49.268;12.302;2023-09-18T04:38:48;16.70;99.90
17728;DHT22;8984;49.268;12.302;2023-09-18T04:41:22;16.50;99.90
17728;DHT22;8984;49.268;12.302;2023-09-18T04:43:54;16.50;99.90
17728;DHT22;8984;49.268;12.302;2023-09-18T04:46:22;16.50;99.90
17728;DHT22;8984;49.268;12.302;2023-09-18T04:48:56;16.60;99.90
17728;DHT22;8984;49.268;12.302;2023-09-18T04:51:30;16.60;99.90
17728;DHT22;8984;49.268;12.302;2023-09-18T04:53:59;16.70;99.90
17728;DHT22;8984;49.268;12.302;2023-09-18T04:56:28;16.70;99.90
17728;DHT22;8984;49.268;12.302;2023-09-18T04:58:56;16.70;99.90
17728;DHT22;8984;49.268;12.302;2023-09-18T05:01:24;16.60;99.90
17728;DHT22;8984;49.268;12.302;2023-09-18T05:03:57;16.60;99.90
17728;DHT22;8984;49.268;12.302;2023-09-18T05:06:50;16.50;99.90
17728;DHT22;8984;49.268;12.302;2023-09-18T05:09:18;16.50;99.90
17728;DHT22;8984;49.268;12.302;2023-09-18T05:11:47;16.60;99.90
17728;DHT22;8984;49.268;12.302;2023-09-18T05:14:15;16.70;99.90
17728;DHT22;8984;49.268;12.302;2023-09-18T05:16:52;17.00;99.90
17728;DHT22;8984;49.268;12.302;2023-09-18T05:19:20;17.10;99.90
17728;DHT22;8984;49.268;12.302;2023-09-18T05:21:50;17.30;99.90
17728;DHT22;8984;49.268;12.302;2023-09-18T05:24:18;17.30;99.90
17728;DHT22;8984;49.268;12.302;2023-09-18T05:26:53;17.20;99.90
17728;DHT22;8984;49.268;12.302;2023-09-18T05:29:20;17.00;99.90
17728;DHT22;8984;49.268;12.302;2023-09-18T05:31:51;17.20;99.90
17728;DHT22;8984;49.268;12.302;2023-09-18T05:34:20;17.40;99.90
17728;DHT22;8984;49.268;12.302;2023-09-18T05:36:57;17.70;99.90
17728;DHT22;8984;49.268;12.302;2023-09-18T05:39:38;18.10;99.90
17728;DHT22;8984;49.268;12.302;2023-09-18T05:44:55;18.60;99.90
17728;DHT22;8984;49.268;12.302;2023-09-18T05:47:31;18.80;99.90
17728;DHT22;8984;49.268;12.302;2023-09-18T05:49:59;19.00;99.90
17728;DHT22;8984;49.268;12.302;2023-09-18T05:52:36;19.30;99.90
17728;DHT22;8984;49.268;12.302;2023-09-18T05:55:07;19.50;99.90
17728;DHT22;8984;49.268;12.302;2023-09-18T05:57:38;19.60;99.90
17728;DHT22;8984;49.268;12.302;2023-09-18T06:00:10;19.70;99.90
17728;DHT22;8984;49.268;12.302;2023-09-18T06:02:38;19.90;99.90
17728;DHT22;8984;49.268;12.302;2023-09-18T06:05:06;20.10;99.90
17728;DHT22;8984;49.268;12.302;2023-09-18T06:07:47;20.30;99.90
17728;DHT22;8984;49.268;12.302;2023-09-18T06:10:15;20.30;99.90
17728;DHT22;8984;49.268;12.302;2023-09-18T06:12:48;20.10;99.90
17728;DHT22;8984;49.268;12.302;2023-09-18T06:15:17;19.90;99.90
17728;DHT22;8984;49.268;12.302;2023-09-18T06:17:46;19.70;99.90
17728;DHT22;8984;49.268;12.302;2023-09-18T06:20:24;19.50;99.90
17728;DHT22;8984;49.268;12.302;2023-09-18T06:23:01;19.30;99.90
17728;DHT22;8984;49.268;12.302;2023-09-18T06:25:29;19.30;99.90
17728;DHT22;8984;49.268;12.302;2023-09-18T06:27:58;19.30;99.90
17728;DHT22;8984;49.268;12.302;2023-09-18T06:30:43;19.30;99.90
17728;DHT22;8984;49.268;12.302;2023-09-18T06:33:17;19.30;99.90
17728;DHT22;8984;49.268;12.302;2023-09-18T06:35:47;19.40;99.90
17728;DHT22;8984;49.268;12.302;2023-09-18T06:38:47;19.50;99.90
17728;DHT22;8984;49.268;12.302;2023-09-18T06:41:15;19.80;99.90
17728;DHT22;8984;49.268;12.302;2023-09-18T06:43:48;20.00;99.90
17728;DHT22;8984;49.268;12.302;2023-09-18T06:46:20;20.20;99.90
17728;DHT22;8984;49.268;12.302;2023-09-18T06:48:53;20.40;99.90
17728;DHT22;8984;49.268;12.302;2023-09-18T06:51:23;20.60;99.90
17728;DHT22;8984;49.268;12.302;2023-09-18T06:53:57;20.70;99.90
17728;DHT22;8984;49.268;12.302;2023-09-18T06:56:28;20.90;99.90
17728;DHT22;8984;49.268;12.302;2023-09-18T06:59:03;21.10;99.90
17728;DHT22;8984;49.268;12.302;2023-09-18T07:01:38;21.20;99.90
17728;DHT22;8984;49.268;12.302;2023-09-18T07:04:08;21.40;99.90
17728;DHT22;8984;49.268;12.302;2023-09-18T07:06:47;21.60;99.90
17728;DHT22;8984;49.268;12.302;2023-09-18T07:09:17;21.50;99.90
17728;DHT22;8984;49.268;12.302;2023-09-18T07:11:50;21.50;99.90
17728;DHT22;8984;49.268;12.302;2023-09-18T07:14:19;21.50;99.90
17728;DHT22;8984;49.268;12.302;2023-09-18T07:16:55;21.50;99.90
17728;DHT22;8984;49.268;12.302;2023-09-18T07:19:39;21.60;99.90
17728;DHT22;8984;49.268;12.302;2023-09-18T07:22:09;21.60;99.90
17728;DHT22;8984;49.268;12.302;2023-09-18T07:24:55;21.70;99.90
17728;DHT22;8984;49.268;12.302;2023-09-18T07:27:25;21.90;99.90
17728;DHT22;8984;49.268;12.302;2023-09-18T07:29:56;22.00;99.90
17728;DHT22;8984;49.268;12.302;2023-09-18T07:32:32;22.30;99.90
17728;DHT22;8984;49.268;12.302;2023-09-18T07:35:07;22.40;99.90
17728;DHT22;8984;49.268;12.302;2023-09-18T07:37:40;22.60;99.90
17728;DHT22;8984;49.268;12.302;2023-09-18T07:40:13;22.70;99.90
17728;DHT22;8984;49.268;12.302;2023-09-18T07:42:55;22.90;99.90
17728;DHT22;8984;49.268;12.302;2023-09-18T07:45:23;23.00;99.90
17728;DHT22;8984;49.268;12.302;2023-09-18T07:48:11;23.30;99.90
17728;DHT22;8984;49.268;12.302;2023-09-18T07:50:46;23.50;99.90
17728;DHT22;8984;49.268;12.302;2023-09-18T07:53:26;23.80;99.90
17728;DHT22;8984;49.268;12.302;2023-09-18T07:56:16;24.00;99.90
17728;DHT22;8984;49.268;12.302;2023-09-18T07:59:06;24.00;99.90
17728;DHT22;8984;49.268;12.302;2023-09-18T08:01:40;24.20;99.90
17728;DHT22;8984;49.268;12.302;2023-09-18T08:04:24;24.20;99.90
17728;DHT22;8984;49.268;12.302;2023-09-18T08:07:05;24.40;99.90
17728;DHT22;8984;49.268;12.302;2023-09-18T08:09:50;24.50;99.90
17728;DHT22;8984;49.268;12.302;2023-09-18T08:12:30;24.60;99.90
17728;DHT22;8984;49.268;12.302;2023-09-18T08:14:57;24.60;99.90
17728;DHT22;8984;49.268;12.302;2023-09-18T08:17:33;24.70;99.90
17728;DHT22;8984;49.268;12.302;2023-09-18T08:20:09;24.80;99.90
17728;DHT22;8984;49.268;12.302;2023-09-18T08:22:42;24.90;99.90
17728;DHT22;8984;49.268;12.302;2023-09-18T08:25:18;24.90;99.90
17728;DHT22;8984;49.268;12.302;2023-09-18T08:27:54;24.90;99.90
17728;DHT22;8984;49.268;12.302;2023-09-18T08:30:29;25.10;99.90
17728;DHT22;8984;49.268;12.302;2023-09-18T08:33:03;25.20;99.90
17728;DHT22;8984;49.268;12.302;2023-09-18T08:35:34;25.40;99.90
17728;DHT22;8984;49.268;12.302;2023-09-18T08:38:04;25.50;99.90
17728;DHT22;8984;49.268;12.302;2023-09-18T08:40:34;25.70;99.90
17728;DHT22;8984;49.268;12.302;2023-09-18T08:43:06;25.80;99.90
17728;DHT22;8984;49.268;12.302;2023-09-18T08:45:43;26.00;99.90
17728;DHT22;8984;49.268;12.302;2023-09-18T08:48:16;26.20;99.90
17728;DHT22;8984;49.268;12.302;2023-09-18T08:50:52;26.30;99.90
17728;DHT22;8984;49.268;12.302;2023-09-18T08:53:33;26.50;99.90
17728;DHT22;8984;49.268;12.302;2023-09-18T08:56:04;26.70;99.90
17728;DHT22;8984;49.268;12.302;2023-09-18T08:58:49;26.80;99.90
17728;DHT22;8984;49.268;12.302;2023-09-18T09:01:30;26.70;99.90
17728;DHT22;8984;49.268;12.302;2023-09-18T09:04:16;26.80;99.90
17728;DHT22;8984;49.268;12.302;2023-09-18T09:06:56;27.00;99.90
17728;DHT22;8984;49.268;12.302;2023-09-18T09:09:25;27.10;99.90
17728;DHT22;8984;49.268;12.302;2023-09-18T09:12:21;27.20;99.90
17728;DHT22;8984;49.268;12.302;2023-09-18T09:15:16;27.30;99.90
17728;DHT22;8984;49.268;12.302;2023-09-18T09:18:06;27.30;99.90
17728;DHT22;8984;49.268;12.302;2023-09-18T09:20:58;27.40;99.90
17728;DHT22;8984;49.268;12.302;2023-09-18T09:23:45;27.40;99.90
17728;DHT22;8984;49.268;12.302;2023-09-18T09:26:25;27.60;99.90
17728;DHT22;8984;49.268;12.302;2023-09-18T09:29:05;27.70;99.90
17728;DHT22;8984;49.268;12.302;2023-09-18T09:31:48;27.80;99.90
17728;DHT22;8984;49.268;12.302;2023-09-18T09:34:25;28.00;99.90
17728;DHT22;8984;49.268;12.302;2023-09-18T09:36:56;28.10;99.90
17728;DHT22;8984;49.268;12.302;2023-09-18T09:39:29;28.10;99.90
17728;DHT22;8984;49.268;12.302;2023-09-18T09:42:01;28.00;99.90
17728;DHT22;8984;49.268;12.302;2023-09-18T09:44:35;27.90;99.90
17728;DHT22;8984;49.268;12.302;2023-09-18T09:47:34;28.00;99.90
17728;DHT22;8984;49.268;12.302;2023-09-18T09:50:06;28.00;99.90
17728;DHT22;8984;49.268;12.302;2023-09-18T09:52:35;28.30;99.90
17728;DHT22;8984;49.268;12.302;2023-09-18T09:55:02;28.50;99.90
17728;DHT22;8984;49.268;12.302;2023-09-18T09:57:30;28.60;99.90
17728;DHT22;8984;49.268;12.302;2023-09-18T10:00:03;28.90;99.90
17728;DHT22;8984;49.268;12.302;2023-09-18T10:02:48;29.00;99.90
17728;DHT22;8984;49.268;12.302;2023-09-18T10:05:17;29.10;99.90
17728;DHT22;8984;49.268;12.302;2023-09-18T10:07:45;29.20;99.90
17728;DHT22;8984;49.268;12.302;2023-09-18T10:10:13;29.30;99.90
17728;DHT22;8984;49.268;12.302;2023-09-18T10:12:40;29.40;99.90
17728;DHT22;8984;49.268;12.302;2023-09-18T10:15:07;29.50;99.90
17728;DHT22;8984;49.268;12.302;2023-09-18T10:17:37;29.50;99.90
17728;DHT22;8984;49.268;12.302;2023-09-18T10:20:13;29.60;99.90
17728;DHT22;8984;49.268;12.302;2023-09-18T10:22:47;29.80;99.90
17728;DHT22;8984;49.268;12.302;2023-09-18T10:25:17;29.90;99.90
17728;DHT22;8984;49.268;12.302;2023-09-18T10:27:47;30.00;99.90
17728;DHT22;8984;49.268;12.302;2023-09-18T10:30:15;30.00;99.90
17728;DHT22;8984;49.268;12.302;2023-09-18T10:32:44;30.10;99.90
17728;DHT22;8984;49.268;12.302;2023-09-18T10:35:14;30.20;99.90
17728;DHT22;8984;49.268;12.302;2023-09-18T10:37:42;30.30;99.90
17728;DHT22;8984;49.268;12.302;2023-09-18T10:40:09;30.30;99.90
17728;DHT22;8984;49.268;12.302;2023-09-18T10:42:38;30.40;99.90
17728;DHT22;8984;49.268;12.302;2023-09-18T10:45:07;30.30;99.90
17728;DHT22;8984;49.268;12.302;2023-09-18T10:47:37;30.20;99.90
17728;DHT22;8984;49.268;12.302;2023-09-18T10:50:05;30.50;99.90
17728;DHT22;8984;49.268;12.302;2023-09-18T10:52:34;30.70;99.90
17728;DHT22;8984;49.268;12.302;2023-09-18T10:55:01;30.70;99.90
17728;DHT22;8984;49.268;12.302;2023-09-18T10:57:33;30.70;99.90
17728;DHT22;8984;49.268;12.302;2023-09-18T11:00:00;30.50;99.90
17728;DHT22;8984;49.268;12.302;2023-09-18T11:02:28;30.60;99.90
17728;DHT22;8984;49.268;12.302;2023-09-18T11:04:54;30.50;99.90
17728;DHT22;8984;49.268;12.302;2023-09-18T11:07:22;30.60;99.90
17728;DHT22;8984;49.268;12.302;2023-09-18T11:09:51;30.50;99.90
17728;DHT22;8984;49.268;12.302;2023-09-18T11:12:18;30.30;99.90
17728;DHT22;8984;49.268;12.302;2023-09-18T11:14:47;30.30;99.90
17728;DHT22;8984;49.268;12.302;2023-09-18T11:17:33;30.20;99.90
17728;DHT22;8984;49.268;12.302;2023-09-18T11:20:04;30.10;99.90
17728;DHT22;8984;49.268;12.302;2023-09-18T11:22:34;30.20;99.90
17728;DHT22;8984;49.268;12.302;2023-09-18T11:28:15;30.20;99.90
17728;DHT22;8984;49.268;12.302;2023-09-18T11:30:49;30.20;99.90
17728;DHT22;8984;49.268;12.302;2023-09-18T11:33:30;30.10;99.90
17728;DHT22;8984;49.268;12.302;2023-09-18T11:36:01;30.00;99.90
17728;DHT22;8984;49.268;12.302;2023-09-18T11:38:29;29.90;99.90
17728;DHT22;8984;49.268;12.302;2023-09-18T11:40:56;29.80;99.90
17728;DHT22;8984;49.268;12.302;2023-09-18T11:43:26;29.60;99.90
17728;DHT22;8984;49.268;12.302;2023-09-18T11:45:56;29.60;99.90
17728;DHT22;8984;49.268;12.302;2023-09-18T11:48:23;29.60;99.90
17728;DHT22;8984;49.268;12.302;2023-09-18T11:50:53;29.60;99.90
17728;DHT22;8984;49.268;12.302;2023-09-18T11:53:21;29.70;99.90
17728;DHT22;8984;49.268;12.302;2023-09-18T11:55:50;29.80;99.90
17728;DHT22;8984;49.268;12.302;2023-09-18T11:58:16;29.90;99.90
17728;DHT22;8984;49.268;12.302;2023-09-18T12:00:50;30.00;99.90
17728;DHT22;8984;49.268;12.302;2023-09-18T12:03:18;30.00;99.90
17728;DHT22;8984;49.268;12.302;2023-09-18T12:05:52;30.10;99.90
17728;DHT22;8984;49.268;12.302;2023-09-18T12:08:20;30.10;99.90
17728;DHT22;8984;49.268;12.302;2023-09-18T12:10:50;30.20;99.90
17728;DHT22;8984;49.268;12.302;2023-09-18T12:13:17;30.20;99.90
17728;DHT22;8984;49.268;12.302;2023-09-18T12:15:44;30.20;99.90
17728;DHT22;8984;49.268;12.302;2023-09-18T12:18:14;30.30;99.90
17728;DHT22;8984;49.268;12.302;2023-09-18T12:20:45;30.40;99.90
17728;DHT22;8984;49.268;12.302;2023-09-18T12:23:40;30.60;99.90
17728;DHT22;8984;49.268;12.302;2023-09-18T12:26:09;30.50;99.90
17728;DHT22;8984;49.268;12.302;2023-09-18T12:28:38;30.30;99.90
17728;DHT22;8984;49.268;12.302;2023-09-18T12:31:06;30.00;99.90
17728;DHT22;8984;49.268;12.302;2023-09-18T12:33:38;30.00;99.90
17728;DHT22;8984;49.268;12.302;2023-09-18T12:36:07;30.10;99.90
17728;DHT22;8984;49.268;12.302;2023-09-18T12:38:35;29.90;99.90
17728;DHT22;8984;49.268;12.302;2023-09-18T12:41:02;29.70;99.90
17728;DHT22;8984;49.268;12.302;2023-09-18T12:43:34;29.60;99.90
17728;DHT22;8984;49.268;12.302;2023-09-18T12:46:02;29.50;99.90
17728;DHT22;8984;49.268;12.302;2023-09-18T12:48:29;29.40;99.90
17728;DHT22;8984;49.268;12.302;2023-09-18T12:51:03;29.40;99.90
17728;DHT22;8984;49.268;12.302;2023-09-18T12:53:31;29.30;99.90
17728;DHT22;8984;49.268;12.302;2023-09-18T12:56:08;29.10;99.90
17728;DHT22;8984;49.268;12.302;2023-09-18T12:58:36;28.90;99.90
17728;DHT22;8984;49.268;12.302;2023-09-18T13:01:07;28.60;99.90
17728;DHT22;8984;49.268;12.302;2023-09-18T13:03:41;28.50;99.90
17728;DHT22;8984;49.268;12.302;2023-09-18T13:06:14;28.50;99.90
17728;DHT22;8984;49.268;12.302;2023-09-18T13:08:43;28.50;99.90
17728;DHT22;8984;49.268;12.302;2023-09-18T13:11:10;28.60;99.90
17728;DHT22;8984;49.268;12.302;2023-09-18T13:13:39;28.60;99.90
17728;DHT22;8984;49.268;12.302;2023-09-18T13:16:08;28.10;99.90
17728;DHT22;8984;49.268;12.302;2023-09-18T13:18:35;28.20;99.90
17728;DHT22;8984;49.268;12.302;2023-09-18T13:21:10;27.70;99.90
17728;DHT22;8984;49.268;12.302;2023-09-18T13:23:37;28.00;99.90
17728;DHT22;8984;49.268;12.302;2023-09-18T13:26:06;27.90;99.90
17728;DHT22;8984;49.268;12.302;2023-09-18T13:28:35;27.70;99.90
17728;DHT22;8984;49.268;12.302;2023-09-18T13:31:02;27.80;99.90
17728;DHT22;8984;49.268;12.302;2023-09-18T13:33:32;27.70;99.90
17728;DHT22;8984;49.268;12.302;2023-09-18T13:35:59;27.20;99.90
17728;DHT22;8984;49.268;12.302;2023-09-18T13:38:27;27.30;99.90
17728;DHT22;8984;49.268;12.302;2023-09-18T13:40:54;27.30;99.90
17728;DHT22;8984;49.268;12.302;2023-09-18T13:43:21;27.10;99.90
17728;DHT22;8984;49.268;12.302;2023-09-18T13:45:49;27.00;99.90
17728;DHT22;8984;49.268;12.302;2023-09-18T13:48:17;27.00;99.90
17728;DHT22;8984;49.268;12.302;2023-09-18T13:50:44;26.80;99.90
17728;DHT22;8984;49.268;12.302;2023-09-18T13:53:12;26.50;99.90
17728;DHT22;8984;49.268;12.302;2023-09-18T13:55:40;26.50;99.90
17728;DHT22;8984;49.268;12.302;2023-09-18T13:58:07;26.30;99.90
17728;DHT22;8984;49.268;12.302;2023-09-18T14:00:34;26.00;99.90
17728;DHT22;8984;49.268;12.302;2023-09-18T14:03:02;25.90;99.90
17728;DHT22;8984;49.268;12.302;2023-09-18T14:05:29;25.70;99.90
17728;DHT22;8984;49.268;12.302;2023-09-18T14:07:58;25.40;99.90
17728;DHT22;8984;49.268;12.302;2023-09-18T14:10:27;25.20;99.90
17728;DHT22;8984;49.268;12.302;2023-09-18T14:12:55;25.00;99.90
17728;DHT22;8984;49.268;12.302;2023-09-18T14:15:22;24.80;99.90
17728;DHT22;8984;49.268;12.302;2023-09-18T14:17:49;24.50;99.90
17728;DHT22;8984;49.268;12.302;2023-09-18T14:20:16;24.30;99.90
17728;DHT22;8984;49.268;12.302;2023-09-18T14:22:45;24.00;99.90
17728;DHT22;8984;49.268;12.302;2023-09-18T14:25:12;23.80;99.90
17728;DHT22;8984;49.268;12.302;2023-09-18T14:27:39;23.80;99.90
17728;DHT22;8984;49.268;12.302;2023-09-18T14:30:09;23.80;99.90
17728;DHT22;8984;49.268;12.302;2023-09-18T14:32:36;23.60;99.90
17728;DHT22;8984;49.268;12.302;2023-09-18T14:35:03;23.60;99.90
17728;DHT22;8984;49.268;12.302;2023-09-18T14:37:33;23.40;99.90
17728;DHT22;8984;49.268;12.302;2023-09-18T14:40:00;23.30;99.90
17728;DHT22;8984;49.268;12.302;2023-09-18T14:42:28;22.90;99.90
17728;DHT22;8984;49.268;12.302;2023-09-18T14:44:54;22.70;99.90
17728;DHT22;8984;49.268;12.302;2023-09-18T14:47:23;22.70;99.90
17728;DHT22;8984;49.268;12.302;2023-09-18T14:49:49;22.60;99.90
17728;DHT22;8984;49.268;12.302;2023-09-18T14:52:16;22.50;99.90
17728;DHT22;8984;49.268;12.302;2023-09-18T14:54:44;22.30;99.90
17728;DHT22;8984;49.268;12.302;2023-09-18T14:57:11;22.20;99.90
17728;DHT22;8984;49.268;12.302;2023-09-18T14:59:37;22.10;99.90
17728;DHT22;8984;49.268;12.302;2023-09-18T15:02:05;21.90;99.90
17728;DHT22;8984;49.268;12.302;2023-09-18T15:04:33;21.90;99.90
17728;DHT22;8984;49.268;12.302;2023-09-18T15:07:00;21.70;99.90
17728;DHT22;8984;49.268;12.302;2023-09-18T15:09:28;21.60;99.90
17728;DHT22;8984;49.268;12.302;2023-09-18T15:11:55;21.50;99.90
17728;DHT22;8984;49.268;12.302;2023-09-18T15:14:21;21.50;99.90
17728;DHT22;8984;49.268;12.302;2023-09-18T15:16:48;21.30;99.90
17728;DHT22;8984;49.268;12.302;2023-09-18T15:19:15;21.30;99.90
17728;DHT22;8984;49.268;12.302;2023-09-18T15:21:44;21.30;99.90
17728;DHT22;8984;49.268;12.302;2023-09-18T15:24:11;21.40;99.90
17728;DHT22;8984;49.268;12.302;2023-09-18T15:26:37;21.40;99.90
17728;DHT22;8984;49.268;12.302;2023-09-18T15:29:04;21.40;99.90
17728;DHT22;8984;49.268;12.302;2023-09-18T15:31:33;21.40;99.90
17728;DHT22;8984;49.268;12.302;2023-09-18T15:34:00;21.30;99.90
17728;DHT22;8984;49.268;12.302;2023-09-18T15:36:27;21.30;99.90
17728;DHT22;8984;49.268;12.302;2023-09-18T15:38:55;21.40;99.90
17728;DHT22;8984;49.268;12.302;2023-09-18T15:41:22;21.30;99.90
17728;DHT22;8984;49.268;12.302;2023-09-18T15:43:49;21.30;99.90
17728;DHT22;8984;49.268;12.302;2023-09-18T15:46:16;21.10;99.90
17728;DHT22;8984;49.268;12.302;2023-09-18T15:48:43;21.10;99.90
17728;DHT22;8984;49.268;12.302;2023-09-18T15:51:11;21.10;99.90
17728;DHT22;8984;49.268;12.302;2023-09-18T15:53:37;21.10;99.90
17728;DHT22;8984;49.268;12.302;2023-09-18T15:56:06;21.20;99.90
17728;DHT22;8984;49.268;12.302;2023-09-18T15:58:32;21.20;99.90
17728;DHT22;8984;49.268;12.302;2023-09-18T16:01:00;21.20;99.90
17728;DHT22;8984;49.268;12.302;2023-09-18T16:03:28;21.30;99.90
17728;DHT22;8984;49.268;12.302;2023-09-18T16:05:54;21.30;99.90
17728;DHT22;8984;49.268;12.302;2023-09-18T16:08:21;21.30;99.90
17728;DHT22;8984;49.268;12.302;2023-09-18T16:10:48;21.20;99.90
17728;DHT22;8984;49.268;12.302;2023-09-18T16:13:17;21.20;99.90
17728;DHT22;8984;49.268;12.302;2023-09-18T16:15:43;21.10;99.90
17728;DHT22;8984;49.268;12.302;2023-09-18T16:18:11;21.10;99.90
17728;DHT22;8984;49.268;12.302;2023-09-18T16:20:38;21.00;99.90